Time;durP1;ratioP1;P1;durP2;ratioP2;P2;SDS_P1;SDS_P2;PMS_P1;PMS_P2;Temp;Humidity;BMP_temperature;BMP_pressure;BME280_temperature;BME280_humidity;BME280_pressure;Samples;Min_cycle;Max_cycle;Signal;HPM_P1;HPM_P2
2022/09/22 00:01:11;;;;;;;;;;;17.50;84.30;;;;;;5032961;28;19905;-24
2022/09/22 00:03:39;;;;;;;;;;;17.50;84.30;;;;;;5034048;28;20015;-25
2022/09/22 00:06:12;;;;;;;;;;;17.50;84.30;;;;;;5034125;28;20376;-24
2022/09/22 00:08:38;;;;;;;;;;;17.50;84.30;;;;;;5033989;28;19988;-25
2022/09/22 00:11:12;;;;;;;;;;;17.50;84.20;;;;;;5033994;28;19913;-24
2022/09/22 00:13:39;;;;;;;;;;;17.50;84.20;;;;;;5034064;28;19905;-24
2022/09/22 00:16:07;;;;;;;;;;;17.40;84.10;;;;;;5033897;28;19999;-24
2022/09/22 00:18:33;;;;;;;;;;;17.50;84.20;;;;;;5034064;28;19912;-24
2022/09/22 00:21:04;;;;;;;;;;;17.50;84.20;;;;;;5033612;28;19905;-24
2022/09/22 00:23:31;;;;;;;;;;;17.50;84.20;;;;;;5033868;28;19909;-24
2022/09/22 00:25:58;;;;;;;;;;;17.40;84.00;;;;;;5033845;28;19939;-24
2022/09/22 00:28:25;;;;;;;;;;;17.50;84.10;;;;;;5034268;28;19967;-24
2022/09/22 00:30:50;;;;;;;;;;;17.40;84.00;;;;;;5033305;28;19963;-25
2022/09/22 00:33:16;;;;;;;;;;;17.40;84.00;;;;;;5033978;28;19901;-24
2022/09/22 00:35:41;;;;;;;;;;;17.40;84.00;;;;;;5033412;28;19909;-24
2022/09/22 00:38:07;;;;;;;;;;;17.40;84.00;;;;;;5033493;28;19951;-24
2022/09/22 00:40:33;;;;;;;;;;;17.40;84.10;;;;;;5033398;28;20289;-24
2022/09/22 00:43:15;;;;;;;;;;;17.40;84.00;;;;;;5033394;28;19991;-24
2022/09/22 00:45:41;;;;;;;;;;;17.40;84.00;;;;;;5033337;28;19974;-24
2022/09/22 00:48:07;;;;;;;;;;;17.40;83.90;;;;;;5033211;28;20346;-24
2022/09/22 00:50:32;;;;;;;;;;;17.40;83.90;;;;;;5033039;28;19909;-24
2022/09/22 00:53:09;;;;;;;;;;;17.40;83.90;;;;;;5033173;28;19911;-25
2022/09/22 00:55:53;;;;;;;;;;;17.40;83.90;;;;;;5033106;28;20354;-24
2022/09/22 00:58:21;;;;;;;;;;;17.40;83.90;;;;;;5033113;28;19905;-25
2022/09/22 01:00:46;;;;;;;;;;;17.40;83.90;;;;;;5032928;28;19948;-24
2022/09/22 01:03:17;;;;;;;;;;;17.40;83.80;;;;;;5032912;28;19951;-24
2022/09/22 01:05:43;;;;;;;;;;;17.40;83.80;;;;;;5033064;28;19905;-24
2022/09/22 01:08:10;;;;;;;;;;;17.30;83.80;;;;;;5032874;28;20278;-24
2022/09/22 01:10:35;;;;;;;;;;;17.40;83.80;;;;;;5032970;28;19948;-24
2022/09/22 01:13:19;;;;;;;;;;;17.30;83.70;;;;;;5032844;28;19947;-24
2022/09/22 01:15:53;;;;;;;;;;;17.30;83.70;;;;;;5032903;28;19911;-24
2022/09/22 01:18:21;;;;;;;;;;;17.30;83.70;;;;;;5032773;28;19912;-24
2022/09/22 01:20:54;;;;;;;;;;;17.30;83.70;;;;;;5032517;28;19912;-24
2022/09/22 01:23:38;;;;;;;;;;;17.30;83.60;;;;;;5032709;28;19909;-25
2022/09/22 01:26:22;;;;;;;;;;;17.30;83.60;;;;;;5032689;28;19912;-24
2022/09/22 01:28:51;;;;;;;;;;;17.30;83.60;;;;;;5031279;28;19913;-24
2022/09/22 01:31:22;;;;;;;;;;;17.30;83.60;;;;;;5032817;28;19909;-24
2022/09/22 01:33:48;;;;;;;;;;;17.30;83.50;;;;;;5031891;28;19913;-24
2022/09/22 01:36:16;;;;;;;;;;;17.30;83.50;;;;;;5032588;28;20278;-24
2022/09/22 01:38:50;;;;;;;;;;;17.30;83.50;;;;;;5032394;28;19905;-24
2022/09/22 01:41:18;;;;;;;;;;;17.30;83.50;;;;;;5032533;28;19909;-24
2022/09/22 01:43:48;;;;;;;;;;;17.20;83.40;;;;;;5032248;28;19909;-24
2022/09/22 01:46:17;;;;;;;;;;;17.20;83.50;;;;;;5032434;28;20287;-24
2022/09/22 01:48:44;;;;;;;;;;;17.20;83.40;;;;;;5032236;28;19996;-24
2022/09/22 01:51:18;;;;;;;;;;;17.20;83.50;;;;;;5032235;28;20404;-24
2022/09/22 01:53:47;;;;;;;;;;;17.20;83.40;;;;;;5032259;28;19909;-24
2022/09/22 01:56:14;;;;;;;;;;;17.20;83.40;;;;;;5032242;28;19912;-25
2022/09/22 01:58:44;;;;;;;;;;;17.20;83.40;;;;;;5032389;28;19905;-25
2022/09/22 02:01:13;;;;;;;;;;;17.20;83.40;;;;;;5032233;28;19912;-25
2022/09/22 02:03:43;;;;;;;;;;;17.20;83.40;;;;;;5032570;28;19999;-24
2022/09/22 02:06:18;;;;;;;;;;;17.10;83.30;;;;;;5032282;28;19911;-24
2022/09/22 02:09:04;;;;;;;;;;;17.20;84.10;;;;;;5032030;28;19940;-25
2022/09/22 02:11:30;;;;;;;;;;;17.20;83.30;;;;;;5031828;28;20329;-24
2022/09/22 02:13:56;;;;;;;;;;;17.20;83.30;;;;;;5032431;28;19909;-24
2022/09/22 02:16:22;;;;;;;;;;;17.20;83.30;;;;;;5032126;28;19952;-25
2022/09/22 02:19:05;;;;;;;;;;;17.20;83.20;;;;;;5031948;28;20334;-24
2022/09/22 02:21:31;;;;;;;;;;;17.20;83.20;;;;;;5032023;28;19959;-24
2022/09/22 02:23:56;;;;;;;;;;;17.10;83.10;;;;;;5030727;28;20308;-24
2022/09/22 02:26:24;;;;;;;;;;;17.10;83.10;;;;;;5032205;28;19905;-25
2022/09/22 02:28:55;;;;;;;;;;;17.10;83.10;;;;;;5031926;28;19905;-24
2022/09/22 02:31:23;;;;;;;;;;;17.10;83.00;;;;;;5030516;28;19956;-24
2022/09/22 02:33:49;;;;;;;;;;;17.10;83.10;;;;;;5031752;28;19917;-24
2022/09/22 02:36:27;;;;;;;;;;;17.10;83.10;;;;;;5032003;28;19905;-24
2022/09/22 02:39:12;;;;;;;;;;;17.10;83.10;;;;;;5031878;28;19909;-24
2022/09/22 02:41:44;;;;;;;;;;;17.10;83.00;;;;;;5024373;28;19944;-24
2022/09/22 02:44:22;;;;;;;;;;;17.10;82.90;;;;;;5033597;28;19940;-24
2022/09/22 02:46:51;;;;;;;;;;;17.10;82.90;;;;;;5035571;28;19912;-24
2022/09/22 02:49:17;;;;;;;;;;;17.10;82.90;;;;;;5035321;28;19912;-24
2022/09/22 02:51:45;;;;;;;;;;;17.10;82.90;;;;;;5035445;28;19909;-25
2022/09/22 02:54:13;;;;;;;;;;;17.10;82.90;;;;;;5035498;28;19974;-24
2022/09/22 02:56:39;;;;;;;;;;;17.10;82.90;;;;;;5035359;28;19987;-24
2022/09/22 02:59:05;;;;;;;;;;;17.10;82.80;;;;;;5035250;28;19905;-24
2022/09/22 03:01:30;;;;;;;;;;;17.10;82.80;;;;;;5034035;28;19905;-24
2022/09/22 03:03:56;;;;;;;;;;;17.10;82.80;;;;;;5035404;28;19905;-24
2022/09/22 03:06:21;;;;;;;;;;;17.10;82.90;;;;;;5035251;28;19928;-24
2022/09/22 03:08:47;;;;;;;;;;;17.00;82.70;;;;;;5035059;28;19986;-24
2022/09/22 03:11:12;;;;;;;;;;;17.10;82.70;;;;;;5034914;28;20358;-24
2022/09/22 03:13:38;;;;;;;;;;;17.10;82.70;;;;;;5035079;28;19952;-24
2022/09/22 03:16:03;;;;;;;;;;;17.10;82.70;;;;;;5035043;28;20003;-24
2022/09/22 03:18:29;;;;;;;;;;;17.00;82.60;;;;;;5034938;28;19958;-24
2022/09/22 03:20:54;;;;;;;;;;;17.00;82.60;;;;;;5034834;28;20262;-24
2022/09/22 03:23:20;;;;;;;;;;;17.00;82.60;;;;;;5034847;28;19909;-24
2022/09/22 03:25:45;;;;;;;;;;;17.00;82.60;;;;;;5034798;28;19959;-24
2022/09/22 03:28:11;;;;;;;;;;;17.00;82.60;;;;;;5035224;28;19905;-25
2022/09/22 03:30:39;;;;;;;;;;;17.00;82.50;;;;;;5034535;28;19948;-24
2022/09/22 03:33:04;;;;;;;;;;;17.00;82.60;;;;;;5034621;28;20282;-24
2022/09/22 03:35:30;;;;;;;;;;;17.00;82.50;;;;;;5033406;28;19905;-24
2022/09/22 03:37:55;;;;;;;;;;;17.00;82.40;;;;;;5034609;28;19912;-25
2022/09/22 03:40:21;;;;;;;;;;;17.00;82.50;;;;;;5034338;28;19905;-24
2022/09/22 03:42:47;;;;;;;;;;;17.00;82.50;;;;;;5034538;28;20394;-25
2022/09/22 03:45:13;;;;;;;;;;;17.00;82.50;;;;;;5034728;28;19992;-24
2022/09/22 03:47:39;;;;;;;;;;;16.90;82.30;;;;;;5034454;28;19912;-25
2022/09/22 03:50:05;;;;;;;;;;;16.90;82.30;;;;;;5034600;28;19909;-24
2022/09/22 03:52:32;;;;;;;;;;;16.90;82.30;;;;;;5034651;28;20345;-24
2022/09/22 03:54:58;;;;;;;;;;;16.90;82.30;;;;;;5032913;28;19905;-24
2022/09/22 03:57:23;;;;;;;;;;;16.90;82.30;;;;;;5034800;28;20373;-24
2022/09/22 03:59:49;;;;;;;;;;;16.90;82.30;;;;;;5034562;28;19912;-25
2022/09/22 04:02:15;;;;;;;;;;;16.90;82.30;;;;;;5034593;28;19905;-24
2022/09/22 04:04:40;;;;;;;;;;;16.90;82.30;;;;;;5034251;28;19931;-24
2022/09/22 04:07:06;;;;;;;;;;;16.90;82.30;;;;;;5034078;28;19975;-24
2022/09/22 04:09:31;;;;;;;;;;;16.90;82.30;;;;;;5033766;28;19909;-24
2022/09/22 04:11:57;;;;;;;;;;;16.90;82.30;;;;;;5033980;28;19913;-24
2022/09/22 04:14:22;;;;;;;;;;;16.90;82.20;;;;;;5034048;28;19911;-25
2022/09/22 04:16:48;;;;;;;;;;;16.90;82.30;;;;;;5033914;28;19905;-24
2022/09/22 04:19:14;;;;;;;;;;;16.90;82.20;;;;;;5033828;28;20134;-24
2022/09/22 04:21:40;;;;;;;;;;;16.90;82.30;;;;;;5033829;28;19955;-24
2022/09/22 04:24:08;;;;;;;;;;;16.90;82.30;;;;;;5033639;28;19905;-24
2022/09/22 04:26:33;;;;;;;;;;;16.80;82.20;;;;;;5033747;28;19909;-25
2022/09/22 04:28:59;;;;;;;;;;;16.80;82.20;;;;;;5033486;28;20252;-24
2022/09/22 04:31:24;;;;;;;;;;;16.80;82.20;;;;;;5033521;28;19924;-25
2022/09/22 04:33:50;;;;;;;;;;;16.80;82.20;;;;;;5033414;28;19912;-24
2022/09/22 04:36:15;;;;;;;;;;;16.80;82.20;;;;;;5033540;28;20333;-24
2022/09/22 04:38:41;;;;;;;;;;;16.80;82.20;;;;;;5033236;28;19911;-25
2022/09/22 04:41:06;;;;;;;;;;;16.80;82.20;;;;;;5033438;28;19905;-25
2022/09/22 04:43:32;;;;;;;;;;;16.80;82.10;;;;;;5032055;28;19905;-24
2022/09/22 04:45:57;;;;;;;;;;;16.80;82.00;;;;;;5033332;28;19927;-24
2022/09/22 04:48:23;;;;;;;;;;;16.80;82.00;;;;;;5033266;28;19956;-24
2022/09/22 04:50:48;;;;;;;;;;;16.70;82.00;;;;;;5033182;28;20291;-24
2022/09/22 04:53:14;;;;;;;;;;;16.80;82.00;;;;;;5033011;28;19959;-25
2022/09/22 04:55:39;;;;;;;;;;;16.80;82.00;;;;;;5033156;28;19905;-24
2022/09/22 04:58:06;;;;;;;;;;;16.70;82.00;;;;;;5033093;28;19909;-24
2022/09/22 05:00:32;;;;;;;;;;;16.80;82.00;;;;;;5032936;28;19909;-24
2022/09/22 05:02:57;;;;;;;;;;;16.70;81.90;;;;;;5033066;28;19976;-24
2022/09/22 05:05:23;;;;;;;;;;;16.70;82.00;;;;;;5033048;28;19967;-24
2022/09/22 05:07:52;;;;;;;;;;;16.70;81.90;;;;;;5031951;28;19905;-24
2022/09/22 05:10:19;;;;;;;;;;;16.70;82.00;;;;;;5032852;28;19909;-24
2022/09/22 05:12:45;;;;;;;;;;;16.70;81.90;;;;;;5032903;28;19904;-25
2022/09/22 05:15:11;;;;;;;;;;;16.70;81.90;;;;;;5032804;28;20282;-25
2022/09/22 05:17:37;;;;;;;;;;;16.70;81.90;;;;;;5032802;28;19905;-24
2022/09/22 05:20:03;;;;;;;;;;;16.70;81.90;;;;;;5032566;28;19912;-24
2022/09/22 05:22:29;;;;;;;;;;;16.70;81.90;;;;;;5032614;28;20378;-24
2022/09/22 05:24:54;;;;;;;;;;;16.70;81.90;;;;;;5032937;28;19916;-24
2022/09/22 05:27:20;;;;;;;;;;;16.70;81.90;;;;;;5032637;28;20365;-24
2022/09/22 05:29:45;;;;;;;;;;;16.60;81.80;;;;;;5032469;28;19909;-24
2022/09/22 05:32:11;;;;;;;;;;;16.60;81.90;;;;;;5032424;28;19909;-24
2022/09/22 05:34:37;;;;;;;;;;;16.60;81.90;;;;;;5032522;28;20016;-24
2022/09/22 05:37:02;;;;;;;;;;;16.60;81.90;;;;;;5032506;28;19912;-24
2022/09/22 05:39:27;;;;;;;;;;;16.60;82.00;;;;;;5032395;28;19905;-24
2022/09/22 05:41:53;;;;;;;;;;;16.60;82.70;;;;;;5032416;28;19909;-24
2022/09/22 05:44:20;;;;;;;;;;;16.60;82.00;;;;;;5032400;28;20004;-24
2022/09/22 05:46:46;;;;;;;;;;;16.60;82.00;;;;;;5032463;28;20370;-24
2022/09/22 05:49:12;;;;;;;;;;;16.60;82.00;;;;;;5032341;28;19977;-24
2022/09/22 05:51:38;;;;;;;;;;;16.60;81.90;;;;;;5032141;28;19996;-24
2022/09/22 05:54:03;;;;;;;;;;;16.60;81.90;;;;;;5032352;28;19909;-24
2022/09/22 05:56:32;;;;;;;;;;;16.60;81.90;;;;;;5032404;28;19905;-24
2022/09/22 05:58:58;;;;;;;;;;;16.60;81.90;;;;;;5032298;28;19905;-24
2022/09/22 06:01:23;;;;;;;;;;;16.60;82.00;;;;;;5032250;28;19932;-24
2022/09/22 06:03:48;;;;;;;;;;;16.60;81.90;;;;;;5032205;28;19995;-24
2022/09/22 06:06:14;;;;;;;;;;;16.60;82.00;;;;;;5032172;28;19911;-24
2022/09/22 06:08:40;;;;;;;;;;;16.60;81.90;;;;;;5032319;28;19913;-24
2022/09/22 06:11:06;;;;;;;;;;;16.60;82.00;;;;;;5032077;28;20400;-24
2022/09/22 06:13:31;;;;;;;;;;;16.60;81.90;;;;;;5032437;28;19905;-24
2022/09/22 06:15:59;;;;;;;;;;;16.60;81.90;;;;;;5032192;28;20001;-24
2022/09/22 06:18:25;;;;;;;;;;;16.60;82.00;;;;;;5032735;28;19912;-25
2022/09/22 06:20:51;;;;;;;;;;;16.60;82.00;;;;;;5035898;28;20278;-25
2022/09/22 06:23:16;;;;;;;;;;;16.60;82.00;;;;;;5036021;28;20377;-24
2022/09/22 06:25:42;;;;;;;;;;;16.60;82.00;;;;;;5035976;28;19905;-24
2022/09/22 06:28:10;;;;;;;;;;;16.60;82.00;;;;;;5036092;28;19912;-25
2022/09/22 06:30:39;;;;;;;;;;;16.60;82.00;;;;;;5035717;28;19909;-24
2022/09/22 06:33:08;;;;;;;;;;;16.60;82.00;;;;;;5035641;28;20381;-24
2022/09/22 06:35:36;;;;;;;;;;;16.60;82.00;;;;;;5043532;22;20008;-23
2022/09/22 06:38:05;;;;;;;;;;;16.60;82.00;;;;;;5015973;28;20000;-23
2022/09/22 06:40:37;;;;;;;;;;;16.60;82.10;;;;;;5015915;28;19905;-23
2022/09/22 06:43:13;;;;;;;;;;;16.70;82.10;;;;;;5016024;28;19996;-23
2022/09/22 06:45:40;;;;;;;;;;;16.70;82.20;;;;;;5015987;28;19906;-23
2022/09/22 06:48:06;;;;;;;;;;;16.70;82.20;;;;;;5015820;28;19909;-23
2022/09/22 06:50:31;;;;;;;;;;;16.70;82.20;;;;;;5015589;28;20293;-23
2022/09/22 06:52:58;;;;;;;;;;;16.70;82.20;;;;;;5015814;28;20405;-23
2022/09/22 06:55:24;;;;;;;;;;;16.70;82.20;;;;;;5015678;28;19905;-23
2022/09/22 06:57:50;;;;;;;;;;;16.80;82.30;;;;;;5015648;28;20001;-23
2022/09/22 07:00:16;;;;;;;;;;;16.80;82.30;;;;;;5015511;28;20000;-23
2022/09/22 07:02:42;;;;;;;;;;;16.70;82.30;;;;;;5015630;28;19960;-23
2022/09/22 07:05:07;;;;;;;;;;;16.80;82.30;;;;;;5015502;28;19905;-23
2022/09/22 07:07:33;;;;;;;;;;;16.80;82.30;;;;;;5015522;28;20008;-23
2022/09/22 07:09:59;;;;;;;;;;;16.80;82.30;;;;;;5015196;28;19909;-23
2022/09/22 07:12:25;;;;;;;;;;;16.80;82.30;;;;;;5015583;28;20330;-23
2022/09/22 07:14:52;;;;;;;;;;;16.80;82.30;;;;;;5014075;28;19912;-23
2022/09/22 07:17:19;;;;;;;;;;;16.80;82.40;;;;;;5015453;28;19905;-23
2022/09/22 07:19:47;;;;;;;;;;;16.90;82.50;;;;;;5013937;28;19928;-23
2022/09/22 07:22:14;;;;;;;;;;;16.90;82.40;;;;;;5015275;28;19940;-23
2022/09/22 07:24:40;;;;;;;;;;;16.80;82.40;;;;;;5015234;28;19909;-23
2022/09/22 07:27:06;;;;;;;;;;;16.90;82.50;;;;;;5015329;28;19913;-23
2022/09/22 07:29:32;;;;;;;;;;;16.90;82.50;;;;;;5014703;28;19961;-23
2022/09/22 07:31:58;;;;;;;;;;;16.90;82.50;;;;;;5013261;28;19905;-23
2022/09/22 07:34:24;;;;;;;;;;;16.90;82.60;;;;;;5014855;28;20435;-23
2022/09/22 07:36:50;;;;;;;;;;;16.90;82.60;;;;;;5015185;28;20302;-23
2022/09/22 07:39:15;;;;;;;;;;;16.90;82.70;;;;;;5014915;28;19905;-23
2022/09/22 07:41:42;;;;;;;;;;;16.90;82.70;;;;;;5014915;28;19905;-23
2022/09/22 07:46:55;;;;;;;;;;;17.00;82.80;;;;;;5015148;28;20385;-23
2022/09/22 07:49:21;;;;;;;;;;;17.00;82.80;;;;;;5014945;28;19968;-23
2022/09/22 07:51:49;;;;;;;;;;;17.00;82.80;;;;;;5014606;28;19909;-23
2022/09/22 07:54:14;;;;;;;;;;;17.10;82.80;;;;;;5014643;28;19906;-23
2022/09/22 07:56:43;;;;;;;;;;;17.10;82.90;;;;;;5014864;28;19905;-23
2022/09/22 07:59:10;;;;;;;;;;;17.10;83.60;;;;;;5014545;28;19979;-23
2022/09/22 08:01:43;;;;;;;;;;;17.10;82.90;;;;;;5014519;28;19910;-23
2022/09/22 08:04:11;;;;;;;;;;;17.20;82.80;;;;;;5014452;28;19952;-23
2022/09/22 08:06:36;;;;;;;;;;;17.20;82.80;;;;;;5014530;28;19905;-23
2022/09/22 08:09:02;;;;;;;;;;;17.20;82.80;;;;;;5014910;28;19927;-23
2022/09/22 08:11:28;;;;;;;;;;;17.20;82.70;;;;;;5014287;28;19909;-23
2022/09/22 08:13:55;;;;;;;;;;;17.30;82.70;;;;;;5014244;28;20096;-23
2022/09/22 08:16:22;;;;;;;;;;;17.30;82.80;;;;;;5014475;28;20028;-23
2022/09/22 08:18:55;;;;;;;;;;;17.30;82.70;;;;;;5014244;28;19916;-22
2022/09/22 08:21:21;;;;;;;;;;;17.30;83.40;;;;;;5014455;28;19941;-23
2022/09/22 08:23:51;;;;;;;;;;;17.30;82.60;;;;;;5014183;28;19906;-23
2022/09/22 08:26:18;;;;;;;;;;;17.40;82.70;;;;;;5014264;28;19917;-23
2022/09/22 08:28:44;;;;;;;;;;;17.40;82.70;;;;;;5014036;28;20389;-23
2022/09/22 08:31:10;;;;;;;;;;;17.40;82.70;;;;;;5014003;28;19909;-23
2022/09/22 08:33:36;;;;;;;;;;;17.40;82.70;;;;;;5013943;28;20000;-23
2022/09/22 08:36:02;;;;;;;;;;;17.40;82.80;;;;;;5014554;28;20389;-23
2022/09/22 08:38:29;;;;;;;;;;;17.40;82.70;;;;;;5013917;28;20289;-23
2022/09/22 08:41:07;;;;;;;;;;;17.50;82.80;;;;;;5013699;28;19905;-23
2022/09/22 08:43:33;;;;;;;;;;;17.50;82.80;;;;;;5013934;28;19977;-23
2022/09/22 08:46:02;;;;;;;;;;;17.50;82.80;;;;;;5013834;28;19910;-23
2022/09/22 08:54:30;;;;;;;;;;;17.50;82.80;;;;;;5001699;28;19937;-23
2022/09/22 08:57:09;;;;;;;;;;;17.50;82.80;;;;;;5012332;28;19916;-23
2022/09/22 08:59:41;;;;;;;;;;;17.60;82.90;;;;;;5013402;28;19913;-23
2022/09/22 09:02:13;;;;;;;;;;;17.60;82.80;;;;;;5013460;28;19905;-23
2022/09/22 09:04:45;;;;;;;;;;;17.60;82.90;;;;;;5013531;28;19937;-23
2022/09/22 09:07:26;;;;;;;;;;;17.60;82.80;;;;;;5013552;28;20279;-23
2022/09/22 09:10:14;;;;;;;;;;;17.60;82.80;;;;;;5013318;28;19913;-23
2022/09/22 09:12:42;;;;;;;;;;;17.60;82.70;;;;;;5013466;28;19912;-23
2022/09/22 09:15:17;;;;;;;;;;;17.60;82.70;;;;;;5013394;28;19905;-23
2022/09/22 09:17:44;;;;;;;;;;;17.60;82.70;;;;;;5013438;28;19971;-23
2022/09/22 09:20:13;;;;;;;;;;;17.70;82.70;;;;;;5013101;28;20289;-23
2022/09/22 09:22:40;;;;;;;;;;;17.70;82.70;;;;;;5013125;28;20038;-23
2022/09/22 09:25:21;;;;;;;;;;;17.70;82.70;;;;;;5013292;28;20333;-23
2022/09/22 09:27:50;;;;;;;;;;;17.70;82.60;;;;;;5013307;28;19905;-23
2022/09/22 09:30:17;;;;;;;;;;;17.70;82.60;;;;;;5012835;28;20063;-23
2022/09/22 09:32:54;;;;;;;;;;;17.70;82.50;;;;;;5013116;28;19912;-23
2022/09/22 09:35:25;;;;;;;;;;;17.70;82.50;;;;;;5012756;28;19987;-23
2022/09/22 09:37:52;;;;;;;;;;;17.70;82.50;;;;;;5012941;28;20281;-24
2022/09/22 09:40:19;;;;;;;;;;;17.80;82.50;;;;;;5012674;28;19973;-23
2022/09/22 09:42:46;;;;;;;;;;;17.80;82.50;;;;;;5013300;28;20365;-23
2022/09/22 09:45:13;;;;;;;;;;;17.80;82.50;;;;;;5012833;28;20294;-23
2022/09/22 09:47:39;;;;;;;;;;;17.80;82.50;;;;;;5012764;28;20397;-23
2022/09/22 09:50:05;;;;;;;;;;;17.80;82.50;;;;;;5012695;28;19916;-23
2022/09/22 09:52:32;;;;;;;;;;;17.80;82.40;;;;;;5012775;28;20337;-23
2022/09/22 09:54:59;;;;;;;;;;;17.80;82.30;;;;;;5012417;28;19906;-23
2022/09/22 09:57:26;;;;;;;;;;;17.90;82.40;;;;;;5013051;28;19906;-23
2022/09/22 10:03:05;;;;;;;;;;;17.90;82.30;;;;;;5012733;28;19959;-23
2022/09/22 10:05:31;;;;;;;;;;;17.90;82.30;;;;;;5012837;28;19905;-23
2022/09/22 10:07:59;;;;;;;;;;;17.90;82.30;;;;;;5012692;28;19905;-23
2022/09/22 10:10:28;;;;;;;;;;;18.00;82.20;;;;;;5012186;28;20004;-23
2022/09/22 10:13:14;;;;;;;;;;;18.00;82.20;;;;;;5012890;28;19905;-23
2022/09/22 10:15:41;;;;;;;;;;;18.00;82.20;;;;;;5012717;28;19909;-23
2022/09/22 10:18:24;;;;;;;;;;;18.00;82.10;;;;;;5012531;28;19909;-23
2022/09/22 10:21:04;;;;;;;;;;;18.10;82.10;;;;;;5012404;28;20362;-23
2022/09/22 10:23:31;;;;;;;;;;;18.10;82.10;;;;;;5012703;28;19906;-23
2022/09/22 10:26:12;;;;;;;;;;;18.10;82.10;;;;;;5012484;28;19905;-24
2022/09/22 10:28:38;;;;;;;;;;;18.10;82.10;;;;;;5012342;28;19906;-24
2022/09/22 10:31:03;;;;;;;;;;;18.10;82.00;;;;;;5012222;28;19910;-24
2022/09/22 10:33:29;;;;;;;;;;;18.10;82.00;;;;;;5012357;28;20092;-23
2022/09/22 10:36:02;;;;;;;;;;;18.20;82.00;;;;;;5010870;28;19918;-23
2022/09/22 10:38:28;;;;;;;;;;;18.20;82.00;;;;;;5012395;28;20506;-23
2022/09/22 10:41:11;;;;;;;;;;;18.20;82.00;;;;;;5012235;28;20359;-23
2022/09/22 10:43:39;;;;;;;;;;;18.20;82.00;;;;;;5012688;28;19906;-23
2022/09/22 10:46:17;;;;;;;;;;;18.20;81.90;;;;;;5012258;28;20076;-23
2022/09/22 10:48:49;;;;;;;;;;;18.30;81.90;;;;;;5012301;28;19949;-23
2022/09/22 10:51:15;;;;;;;;;;;18.30;82.00;;;;;;5012048;28;19909;-23
2022/09/22 10:53:58;;;;;;;;;;;18.30;81.80;;;;;;5012212;28;19912;-23
2022/09/22 10:56:26;;;;;;;;;;;18.30;81.90;;;;;;5012098;28;19913;-23
2022/09/22 10:59:10;;;;;;;;;;;18.30;81.90;;;;;;5012065;28;19905;-23
2022/09/22 11:01:35;;;;;;;;;;;18.30;81.80;;;;;;5012086;28;20002;-23
2022/09/22 11:04:08;;;;;;;;;;;18.30;81.80;;;;;;5012070;28;19910;-23
2022/09/22 11:12:24;;;;;;;;;;;18.40;81.90;;;;;;5015897;28;19973;-23
2022/09/22 11:14:58;;;;;;;;;;;18.40;81.90;;;;;;5015959;28;19940;-23
2022/09/22 11:17:43;;;;;;;;;;;18.40;81.90;;;;;;5015454;28;19909;-23
2022/09/22 11:20:27;;;;;;;;;;;18.40;81.90;;;;;;5015257;28;20348;-23
2022/09/22 11:23:07;;;;;;;;;;;18.40;81.90;;;;;;5015371;28;19921;-23
2022/09/22 11:25:43;;;;;;;;;;;18.50;82.00;;;;;;5015031;28;19905;-23
2022/09/22 11:28:19;;;;;;;;;;;18.40;81.90;;;;;;5015311;28;19995;-23
2022/09/22 11:30:45;;;;;;;;;;;18.50;76.00;;;;;;5014984;28;19915;-23
2022/09/22 11:33:30;;;;;;;;;;;18.40;76.50;;;;;;5015102;28;19905;-23
2022/09/22 11:36:10;;;;;;;;;;;18.50;77.10;;;;;;5014870;28;20404;-23
2022/09/22 11:38:38;;;;;;;;;;;18.50;77.70;;;;;;5016007;28;19920;-23
2022/09/22 11:41:25;;;;;;;;;;;18.50;78.10;;;;;;5018357;28;19912;-23
2022/09/22 11:43:56;;;;;;;;;;;18.50;78.50;;;;;;5015922;28;19905;-23
2022/09/22 11:46:41;;;;;;;;;;;18.50;78.80;;;;;;5014895;28;20344;-23
2022/09/22 11:49:15;;;;;;;;;;;18.50;79.00;;;;;;5014562;28;19906;-23
2022/09/22 11:51:56;;;;;;;;;;;18.50;79.10;;;;;;5014927;28;20275;-23
2022/09/22 11:54:29;;;;;;;;;;;18.60;79.40;;;;;;5014792;28;20383;-23
2022/09/22 11:56:56;;;;;;;;;;;18.60;79.50;;;;;;5014975;28;20675;-23
2022/09/22 11:59:26;;;;;;;;;;;18.60;79.50;;;;;;5014862;28;19912;-23
2022/09/22 12:01:53;;;;;;;;;;;18.60;79.70;;;;;;5014657;28;20278;-23
2022/09/22 12:04:40;;;;;;;;;;;18.60;79.80;;;;;;5014480;28;20231;-23
2022/09/22 12:07:15;;;;;;;;;;;18.60;79.90;;;;;;5014418;28;19931;-23
2022/09/22 12:09:46;;;;;;;;;;;18.60;80.00;;;;;;5014582;28;20270;-23
2022/09/22 12:12:15;;;;;;;;;;;18.70;80.10;;;;;;5014654;28;19960;-23
2022/09/22 12:14:41;;;;;;;;;;;18.70;80.20;;;;;;5014349;28;19992;-23
2022/09/22 12:17:10;;;;;;;;;;;18.70;80.30;;;;;;5013940;28;19967;-24
2022/09/22 12:19:54;;;;;;;;;;;18.70;80.30;;;;;;5014190;28;19975;-23
2022/09/22 12:22:43;;;;;;;;;;;18.70;80.40;;;;;;5014418;28;20359;-23
2022/09/22 12:25:12;;;;;;;;;;;18.70;80.30;;;;;;4994756;28;19905;-23
2022/09/22 12:27:39;;;;;;;;;;;18.70;80.40;;;;;;5014103;28;19905;-23
2022/09/22 12:30:06;;;;;;;;;;;18.80;80.40;;;;;;5013656;28;19909;-23
2022/09/22 12:32:39;;;;;;;;;;;18.80;80.50;;;;;;5012748;28;20481;-23
2022/09/22 12:35:06;;;;;;;;;;;18.80;80.50;;;;;;5055152;22;19924;-26
2022/09/22 12:37:33;;;;;;;;;;;18.80;80.50;;;;;;5013910;28;19905;-26
2022/09/22 12:40:05;;;;;;;;;;;18.80;80.50;;;;;;5013738;28;19912;-26
2022/09/22 12:42:31;;;;;;;;;;;18.80;80.40;;;;;;5013862;28;19909;-26
2022/09/22 12:45:00;;;;;;;;;;;18.80;80.50;;;;;;5013632;28;19906;-26
2022/09/22 12:47:32;;;;;;;;;;;18.80;80.50;;;;;;5013685;28;19906;-26
2022/09/22 12:49:58;;;;;;;;;;;18.90;80.60;;;;;;5013371;28;19906;-26
2022/09/22 12:52:39;;;;;;;;;;;18.80;80.50;;;;;;5013763;28;20337;-26
2022/09/22 12:55:18;;;;;;;;;;;18.90;80.50;;;;;;5013492;28;19905;-26
2022/09/22 12:57:48;;;;;;;;;;;18.80;80.50;;;;;;5013482;28;19906;-26
2022/09/22 13:00:33;;;;;;;;;;;18.90;80.60;;;;;;5013271;28;19905;-26
2022/09/22 13:02:59;;;;;;;;;;;18.90;80.60;;;;;;5013396;28;19905;-26
2022/09/22 13:05:24;;;;;;;;;;;18.80;80.60;;;;;;5013271;28;19967;-26
2022/09/22 13:07:52;;;;;;;;;;;18.90;80.70;;;;;;5013356;28;20338;-26
2022/09/22 13:10:21;;;;;;;;;;;18.90;80.70;;;;;;5013287;28;19910;-26
2022/09/22 13:13:02;;;;;;;;;;;18.90;80.70;;;;;;5013290;28;19909;-26
2022/09/22 13:15:27;;;;;;;;;;;18.90;80.50;;;;;;5013140;28;20283;-26
2022/09/22 13:17:53;;;;;;;;;;;18.90;80.50;;;;;;5013101;28;19932;-26
2022/09/22 13:20:19;;;;;;;;;;;18.90;80.60;;;;;;5012954;28;20405;-26
2022/09/22 13:22:44;;;;;;;;;;;18.90;80.70;;;;;;5013330;28;19928;-26
2022/09/22 13:25:20;;;;;;;;;;;18.90;80.60;;;;;;5013202;28;19988;-26
2022/09/22 13:27:46;;;;;;;;;;;18.90;80.60;;;;;;5012517;28;19905;-26
2022/09/22 13:30:13;;;;;;;;;;;19.00;80.70;;;;;;5012515;28;20296;-26
2022/09/22 13:32:39;;;;;;;;;;;18.90;80.70;;;;;;5012804;28;19952;-26
2022/09/22 13:35:22;;;;;;;;;;;18.90;80.70;;;;;;5012746;28;19913;-26
2022/09/22 13:37:48;;;;;;;;;;;18.90;80.70;;;;;;5012901;28;19951;-26
2022/09/22 13:40:14;;;;;;;;;;;18.90;80.70;;;;;;5012751;28;19996;-26
2022/09/22 13:42:41;;;;;;;;;;;18.90;80.80;;;;;;5012931;28;19951;-26
2022/09/22 13:45:12;;;;;;;;;;;18.90;80.90;;;;;;5012650;28;19906;-26
2022/09/22 13:47:39;;;;;;;;;;;18.90;80.90;;;;;;5012776;28;20329;-26
2022/09/22 13:50:12;;;;;;;;;;;18.90;80.90;;;;;;5012589;28;19909;-26
2022/09/22 13:52:38;;;;;;;;;;;18.90;80.90;;;;;;5012745;28;20354;-26
2022/09/22 13:55:05;;;;;;;;;;;19.00;80.90;;;;;;5012625;28;19910;-26
2022/09/22 13:57:33;;;;;;;;;;;18.90;80.90;;;;;;5012574;28;19909;-26
2022/09/22 13:59:59;;;;;;;;;;;18.90;80.90;;;;;;5012382;28;19913;-26
2022/09/22 14:02:25;;;;;;;;;;;18.90;80.90;;;;;;5012666;28;19906;-26
2022/09/22 14:04:58;;;;;;;;;;;18.90;80.90;;;;;;5012581;28;19913;-26
2022/09/22 14:07:25;;;;;;;;;;;19.00;81.10;;;;;;5012548;28;19906;-26
2022/09/22 14:09:51;;;;;;;;;;;19.00;81.00;;;;;;5012313;28;19963;-26
2022/09/22 14:12:17;;;;;;;;;;;19.00;81.10;;;;;;5012500;28;20282;-26
2022/09/22 14:14:42;;;;;;;;;;;19.00;74.60;;;;;;5012893;28;19997;-26
2022/09/22 14:17:16;;;;;;;;;;;18.90;71.50;;;;;;5012460;28;20333;-26
2022/09/22 14:19:51;;;;;;;;;;;18.90;71.10;;;;;;5012338;28;20366;-26
2022/09/22 14:22:24;;;;;;;;;;;18.90;72.00;;;;;;5012415;28;19951;-26
2022/09/22 14:24:52;;;;;;;;;;;18.90;72.80;;;;;;5012202;28;19920;-26
2022/09/22 14:27:40;;;;;;;;;;;18.90;73.50;;;;;;5012361;28;19992;-26
2022/09/22 14:30:13;;;;;;;;;;;19.00;74.10;;;;;;5012317;28;19992;-26
2022/09/22 14:32:46;;;;;;;;;;;19.00;74.50;;;;;;5012463;28;20409;-26
2022/09/22 14:35:21;;;;;;;;;;;19.00;75.70;;;;;;5012045;28;19913;-26
2022/09/22 14:37:47;;;;;;;;;;;19.00;75.30;;;;;;5012341;28;19905;-26
2022/09/22 14:40:15;;;;;;;;;;;19.00;75.50;;;;;;5014031;28;19909;-26
2022/09/22 14:42:40;;;;;;;;;;;19.00;75.80;;;;;;5016138;28;19917;-27
2022/09/22 14:45:09;;;;;;;;;;;19.00;76.10;;;;;;5015889;28;19906;-26